Time,TemperatureF,DewpointF,PressureIn,WindDirection,WindDirectionDegrees,WindSpeedMPH,WindSpeedGustMPH,Humidity,HourlyPrecipIn,Conditions,Clouds,dailyrainin,SoftwareType,DateUTC
2012-09-23 00:01:00,48.7,46.0,30.09,NNE,22,0.0,0.0,90,0.00,,,0.00,WUHU21623XXSP,2012-09-23 07:01:00,
2012-09-23 00:06:00,48.7,45.7,30.09,NNE,22,0.0,0.0,89,0.00,,,0.00,WUHU21623XXSP,2012-09-23 07:06:00,
2012-09-23 00:11:00,48.6,45.5,30.09,NNE,22,0.0,0.0,89,0.00,,,0.00,WUHU21623XXSP,2012-09-23 07:11:00,
2012-09-23 00:16:00,48.6,45.5,30.09,NNE,22,0.0,0.0,89,0.00,,,0.00,WUHU21623XXSP,2012-09-23 07:16:00,
2012-09-23 00:21:00,48.4,45.7,30.09,NNE,22,0.0,0.0,90,0.00,,,0.00,WUHU21623XXSP,2012-09-23 07:21:00,
2012-09-23 00:26:00,48.4,45.7,30.09,NNE,22,0.0,0.0,90,0.00,,,0.00,WUHU21623XXSP,2012-09-23 07:26:00,
2012-09-23 00:31:00,48.2,45.5,30.09,NNE,22,0.0,0.0,90,0.00,,,0.00,WUHU21623XXSP,2012-09-23 07:31:00,
2012-09-23 00:36:00,48.0,45.3,30.08,NNE,22,0.0,0.0,90,0.00,,,0.00,WUHU21623XXSP,2012-09-23 07:36:00,
2012-09-23 00:41:00,48.0,45.3,30.09,NNE,22,0.0,0.0,90,0.00,,,0.00,WUHU21623XXSP,2012-09-23 07:41:00,
2012-09-23 00:46:00,48.0,45.3,30.09,NNE,22,0.0,0.0,90,0.00,,,0.00,WUHU21623XXSP,2012-09-23 07:46:00,
2012-09-23 00:51:00,47.8,45.1,30.09,NNE,22,0.0,0.0,90,0.00,,,0.00,WUHU21623XXSP,2012-09-23 07:51:00,
2012-09-23 00:56:00,47.8,45.1,30.09,NNE,22,0.0,0.0,90,0.00,,,0.00,WUHU21623XXSP,2012-09-23 07:56:00,
2012-09-23 01:01:00,47.8,45.1,30.09,NNE,22,0.0,0.0,90,0.00,,,0.00,WUHU21623XXSP,2012-09-23 08:01:00,
2012-09-23 01:06:00,47.8,45.1,30.09,NNE,22,0.0,0.0,90,0.00,,,0.00,WUHU21623XXSP,2012-09-23 08:06:00,
2012-09-23 01:11:00,47.8,45.1,30.09,NNE,22,0.0,0.0,90,0.00,,,0.00,WUHU21623XXSP,2012-09-23 08:11:00,
2012-09-23 01:16:00,47.8,45.1,30.09,NNE,22,0.0,0.0,90,0.00,,,0.00,WUHU21623XXSP,2012-09-23 08:16:00,
2012-09-23 01:21:00,47.7,45.0,30.10,NNE,22,0.0,0.0,90,0.00,,,0.00,WUHU21623XXSP,2012-09-23 08:21:00,
2012-09-23 01:26:00,47.7,45.0,30.10,NNE,22,0.0,0.0,90,0.00,,,0.00,WUHU21623XXSP,2012-09-23 08:26:00,
2012-09-23 01:31:00,47.7,45.0,30.10,NNE,22,0.0,0.0,90,0.00,,,0.00,WUHU21623XXSP,2012-09-23 08:31:00,
2012-09-23 01:36:00,47.7,45.0,30.10,NNE,22,0.0,0.0,90,0.00,,,0.00,WUHU21623XXSP,2012-09-23 08:36:00,
2012-09-23 01:41:00,47.5,44.8,30.10,NNE,22,0.0,0.0,90,0.00,,,0.00,WUHU21623XXSP,2012-09-23 08:41:00,
2012-09-23 01:46:00,47.5,44.8,30.10,NNE,22,0.0,0.0,90,0.00,,,0.00,WUHU21623XXSP,2012-09-23 08:46:00,
2012-09-23 01:51:00,47.3,44.6,30.10,NNE,22,0.0,0.0,90,0.00,,,0.00,WUHU21623XXSP,2012-09-23 08:51:00,
2012-09-23 01:56:00,47.1,44.4,30.10,NNE,22,0.0,0.0,90,0.00,,,0.00,WUHU21623XXSP,2012-09-23 08:56:00,
2012-09-23 02:01:00,47.1,44.4,30.10,NNE,22,0.0,0.0,90,0.00,,,0.00,WUHU21623XXSP,2012-09-23 09:01:00,
2012-09-23 02:06:00,46.9,44.2,30.10,NNE,22,0.0,0.0,90,0.00,,,0.00,WUHU21623XXSP,2012-09-23 09:06:00,
2012-09-23 02:11:00,46.9,44.2,30.10,NNE,22,0.0,0.0,90,0.00,,,0.00,WUHU21623XXSP,2012-09-23 09:11:00,
2012-09-23 02:16:00,46.8,44.1,30.10,NNE,22,0.0,0.0,90,0.00,,,0.00,WUHU21623XXSP,2012-09-23 09:16:00,
2012-09-23 02:21:00,46.6,43.9,30.10,NNE,22,0.0,0.0,90,0.00,,,0.00,WUHU21623XXSP,2012-09-23 09:21:00,
2012-09-23 02:26:00,46.6,43.9,30.10,NNE,22,0.0,0.0,90,0.00,,,0.00,WUHU21623XXSP,2012-09-23 09:26:00,
2012-09-23 02:31:00,46.6,43.9,30.10,NNE,22,0.0,0.0,90,0.00,,,0.00,WUHU21623XXSP,2012-09-23 09:31:00,
2012-09-23 02:36:00,46.4,43.7,30.10,NNE,22,0.0,0.0,90,0.00,,,0.00,WUHU21623XXSP,2012-09-23 09:36:00,
2012-09-23 02:41:00,46.2,43.7,30.10,NNE,22,0.0,0.0,90,0.00,,,0.00,WUHU21623XXSP,2012-09-23 09:41:00,
2012-09-23 02:46:00,46.2,43.5,30.10,NNE,22,0.0,0.0,90,0.00,,,0.00,WUHU21623XXSP,2012-09-23 09:46:00,
2012-09-23 02:51:00,46.2,43.5,30.10,NNE,22,0.0,0.0,90,0.00,,,0.00,WUHU21623XXSP,2012-09-23 09:51:00,
2012-09-23 02:56:00,46.0,43.3,30.10,NNE,22,0.0,0.0,90,0.00,,,0.00,WUHU21623XXSP,2012-09-23 09:56:00,
2012-09-23 03:01:00,46.2,43.5,30.10,NNE,22,0.0,0.0,90,0.00,,,0.00,WUHU21623XXSP,2012-09-23 10:01:00,
2012-09-23 03:06:00,46.0,43.3,30.10,NNE,22,0.0,0.0,90,0.00,,,0.00,WUHU21623XXSP,2012-09-23 10:06:00,
2012-09-23 03:11:00,46.0,43.6,30.09,NNE,22,0.0,0.0,91,0.00,,,0.00,WUHU21623XXSP,2012-09-23 10:11:00,
2012-09-23 03:16:00,46.0,43.6,30.10,NNE,22,0.0,0.0,91,0.00,,,0.00,WUHU21623XXSP,2012-09-23 10:16:00,
2012-09-23 03:21:00,46.2,43.8,30.10,NNE,22,0.0,0.0,91,0.00,,,0.00,WUHU21623XXSP,2012-09-23 10:21:00,
2012-09-23 03:26:00,46.2,43.8,30.10,NNE,22,0.0,0.0,91,0.00,,,0.00,WUHU21623XXSP,2012-09-23 10:26:00,
2012-09-23 03:31:00,46.2,43.8,30.10,NNE,22,0.0,0.0,91,0.00,,,0.00,WUHU21623XXSP,2012-09-23 10:31:00,
2012-09-23 03:36:00,46.2,43.8,30.10,NNE,22,0.0,0.0,91,0.00,,,0.00,WUHU21623XXSP,2012-09-23 10:36:00,
2012-09-23 03:41:00,46.2,43.8,30.10,NNE,22,0.0,0.0,91,0.00,,,0.00,WUHU21623XXSP,2012-09-23 10:41:00,
2012-09-23 03:46:00,46.2,43.8,30.10,NNE,22,0.0,0.0,91,0.00,,,0.00,WUHU21623XXSP,2012-09-23 10:46:00,
2012-09-23 03:51:00,46.2,43.8,30.10,NNE,22,0.0,0.0,91,0.00,,,0.00,WUHU21623XXSP,2012-09-23 10:51:00,
2012-09-23 03:56:00,46.0,43.6,30.10,NNE,22,0.0,0.0,91,0.00,,,0.00,WUHU21623XXSP,2012-09-23 10:56:00,
2012-09-23 04:01:00,46.0,43.6,30.10,NNE,22,0.0,0.0,91,0.00,,,0.00,WUHU21623XXSP,2012-09-23 11:01:00,
2012-09-23 04:06:00,45.7,43.6,30.10,NNE,22,0.0,0.0,90,0.00,,,0.00,WUHU21623XXSP,2012-09-23 11:06:00,
2012-09-23 04:11:00,45.7,43.0,30.10,NNE,22,0.0,0.0,90,0.00,,,0.00,WUHU21623XXSP,2012-09-23 11:11:00,
2012-09-23 04:16:00,45.7,43.0,30.10,NNE,22,0.0,0.0,90,0.00,,,0.00,WUHU21623XXSP,2012-09-23 11:16:00,
2012-09-23 04:21:00,45.7,43.0,30.10,NNE,22,0.0,0.0,90,0.00,,,0.00,WUHU21623XXSP,2012-09-23 11:21:00,
2012-09-23 04:26:00,45.5,43.1,30.10,NNE,22,0.0,0.0,91,0.00,,,0.00,WUHU21623XXSP,2012-09-23 11:26:00,
2012-09-23 04:31:00,45.5,43.1,30.10,NNE,22,0.0,0.0,91,0.00,,,0.00,WUHU21623XXSP,2012-09-23 11:31:00,
2012-09-23 04:36:00,45.5,43.1,30.10,NNE,22,0.0,0.0,91,0.00,,,0.00,WUHU21623XXSP,2012-09-23 11:36:00,
2012-09-23 04:41:00,45.5,43.1,30.10,NNE,22,0.0,0.0,91,0.00,,,0.00,WUHU21623XXSP,2012-09-23 11:41:00,
2012-09-23 04:46:00,45.5,43.1,30.10,NNE,22,0.0,0.0,91,0.00,,,0.00,WUHU21623XXSP,2012-09-23 11:46:00,
2012-09-23 04:51:00,45.3,42.9,30.09,NNE,22,0.0,0.0,91,0.00,,,0.00,WUHU21623XXSP,2012-09-23 11:51:00,
2012-09-23 04:56:00,45.3,42.9,30.09,NNE,22,0.0,0.0,91,0.00,,,0.00,WUHU21623XXSP,2012-09-23 11:56:00,
2012-09-23 05:01:00,45.3,42.9,30.09,NNE,22,0.0,0.0,91,0.00,,,0.00,WUHU21623XXSP,2012-09-23 12:01:00,
2012-09-23 05:06:00,45.3,42.9,30.09,NNE,22,0.0,0.0,91,0.00,,,0.00,WUHU21623XXSP,2012-09-23 12:06:00,
2012-09-23 05:11:00,45.3,42.9,30.09,NNE,22,0.0,0.0,91,0.00,,,0.00,WUHU21623XXSP,2012-09-23 12:11:00,
2012-09-23 05:16:00,45.1,42.7,30.09,NNE,22,0.0,0.0,91,0.00,,,0.00,WUHU21623XXSP,2012-09-23 12:16:00,
2012-09-23 05:21:00,45.1,42.7,30.09,NNE,22,0.0,0.0,91,0.00,,,0.00,WUHU21623XXSP,2012-09-23 12:21:00,
2012-09-23 05:26:00,45.1,42.7,30.09,NNE,22,0.0,0.0,91,0.00,,,0.00,WUHU21623XXSP,2012-09-23 12:26:00,
2012-09-23 05:31:00,45.1,42.7,30.10,NNE,22,0.0,0.0,91,0.00,,,0.00,WUHU21623XXSP,2012-09-23 12:31:00,
2012-09-23 05:36:00,45.1,42.7,30.09,NNE,22,0.0,0.0,91,0.00,,,0.00,WUHU21623XXSP,2012-09-23 12:36:00,
2012-09-23 05:41:00,45.0,42.5,30.09,NNE,22,0.0,0.0,91,0.00,,,0.00,WUHU21623XXSP,2012-09-23 12:41:00,
2012-09-23 05:46:00,45.0,42.5,30.09,NNE,22,0.0,0.0,91,0.00,,,0.00,WUHU21623XXSP,2012-09-23 12:46:00,
2012-09-23 05:51:00,45.0,42.5,30.10,NNE,22,0.0,0.0,91,0.00,,,0.00,WUHU21623XXSP,2012-09-23 12:51:00,
2012-09-23 05:56:00,44.8,42.4,30.10,NNE,22,0.0,0.0,91,0.00,,,0.00,WUHU21623XXSP,2012-09-23 12:56:00,
2012-09-23 06:01:00,44.8,42.4,30.10,NNE,22,0.0,0.0,91,0.00,,,0.00,WUHU21623XXSP,2012-09-23 13:01:00,
2012-09-23 06:06:00,44.8,42.4,30.10,NNE,22,0.0,0.0,91,0.00,,,0.00,WUHU21623XXSP,2012-09-23 13:06:00,
2012-09-23 06:11:00,44.8,42.4,30.10,NNE,22,0.0,0.0,91,0.00,,,0.00,WUHU21623XXSP,2012-09-23 13:11:00,
2012-09-23 06:16:00,44.8,42.4,30.10,NNE,22,0.0,0.0,91,0.00,,,0.00,WUHU21623XXSP,2012-09-23 13:16:00,
2012-09-23 06:21:00,44.8,42.4,30.10,NNE,22,0.0,0.0,91,0.00,,,0.00,WUHU21623XXSP,2012-09-23 13:21:00,
2012-09-23 06:26:00,44.6,42.2,30.10,NNE,22,0.0,0.0,91,0.00,,,0.00,WUHU21623XXSP,2012-09-23 13:26:00,
2012-09-23 06:31:00,44.4,42.0,30.10,NNE,22,0.0,0.0,91,0.00,,,0.00,WUHU21623XXSP,2012-09-23 13:31:00,
2012-09-23 06:36:00,44.4,42.0,30.10,NNE,22,0.0,0.0,91,0.00,,,0.00,WUHU21623XXSP,2012-09-23 13:36:00,
2012-09-23 06:41:00,44.4,42.0,30.10,NNE,22,0.0,0.0,91,0.00,,,0.00,WUHU21623XXSP,2012-09-23 13:41:00,
2012-09-23 06:46:00,44.2,41.8,30.10,NNE,22,0.0,0.0,91,0.00,,,0.00,WUHU21623XXSP,2012-09-23 13:46:00,
2012-09-23 06:51:00,44.4,42.0,30.10,NNE,22,0.0,0.0,91,0.00,,,0.00,WUHU21623XXSP,2012-09-23 13:51:00,
2012-09-23 06:56:00,44.2,42.1,30.10,NNE,22,0.0,0.0,92,0.00,,,0.00,WUHU21623XXSP,2012-09-23 13:56:00,
2012-09-23 07:01:00,44.2,41.8,30.10,NNE,22,0.0,0.0,91,0.00,,,0.00,WUHU21623XXSP,2012-09-23 14:01:00,
2012-09-23 07:06:00,44.2,41.8,30.10,North,0,0.0,0.0,91,0.00,,,0.00,WUHU21623XXSP,2012-09-23 14:06:00,
2012-09-23 07:11:00,44.1,41.6,30.10,North,0,0.0,0.0,91,0.00,,,0.00,WUHU21623XXSP,2012-09-23 14:11:00,
2012-09-23 07:16:00,44.1,41.6,30.11,North,0,0.0,0.0,91,0.00,,,0.00,WUHU21623XXSP,2012-09-23 14:16:00,
2012-09-23 07:21:00,43.9,41.5,30.11,North,0,0.0,0.0,91,0.00,,,0.00,WUHU21623XXSP,2012-09-23 14:21:00,
2012-09-23 07:26:00,43.9,41.5,30.11,North,0,0.0,0.0,91,0.00,,,0.00,WUHU21623XXSP,2012-09-23 14:26:00,
2012-09-23 07:31:00,44.1,41.9,30.12,North,0,0.0,0.0,92,0.00,,,0.00,WUHU21623XXSP,2012-09-23 14:31:00,
2012-09-23 07:36:00,44.2,42.1,30.12,North,0,0.0,0.0,92,0.00,,,0.00,WUHU21623XXSP,2012-09-23 14:36:00,
2012-09-23 07:41:00,44.2,42.1,30.11,North,0,0.0,0.0,92,0.00,,,0.00,WUHU21623XXSP,2012-09-23 14:41:00,
2012-09-23 07:46:00,44.2,42.1,30.11,North,0,0.0,0.0,92,0.00,,,0.00,WUHU21623XXSP,2012-09-23 14:46:00,
2012-09-23 07:51:00,44.4,42.3,30.11,North,0,0.0,0.0,92,0.00,,,0.00,WUHU21623XXSP,2012-09-23 14:51:00,
2012-09-23 07:56:00,44.4,42.3,30.11,North,0,0.0,0.0,92,0.00,,,0.00,WUHU21623XXSP,2012-09-23 14:56:00,
2012-09-23 08:01:00,44.4,42.3,30.11,North,0,0.0,0.0,92,0.00,,,0.00,WUHU21623XXSP,2012-09-23 15:01:00,
2012-09-23 08:06:00,44.8,42.6,30.11,North,0,0.0,0.0,92,0.00,,,0.00,WUHU21623XXSP,2012-09-23 15:06:00,
2012-09-23 08:11:00,44.8,42.6,30.11,North,0,0.0,0.0,92,0.00,,,0.00,WUHU21623XXSP,2012-09-23 15:11:00,
2012-09-23 08:16:00,45.1,43.0,30.12,North,0,0.0,0.0,92,0.00,,,0.00,WUHU21623XXSP,2012-09-23 15:16:00,
2012-09-23 08:21:00,45.1,43.0,30.12,North,0,0.0,0.0,92,0.00,,,0.00,WUHU21623XXSP,2012-09-23 15:21:00,
2012-09-23 08:26:00,45.3,43.2,30.11,North,0,0.0,0.0,92,0.00,,,0.00,WUHU21623XXSP,2012-09-23 15:26:00,
2012-09-23 08:31:00,45.7,43.5,30.11,North,0,0.0,0.0,92,0.00,,,0.00,WUHU21623XXSP,2012-09-23 15:31:00,
2012-09-23 08:36:00,46.0,43.7,30.11,North,0,0.0,0.0,92,0.00,,,0.00,WUHU21623XXSP,2012-09-23 15:36:00,
2012-09-23 08:41:00,46.2,44.1,30.10,North,0,0.0,0.0,92,0.00,,,0.00,WUHU21623XXSP,2012-09-23 15:41:00,
2012-09-23 08:46:00,46.6,44.4,30.11,North,0,0.0,0.0,92,0.00,,,0.00,WUHU21623XXSP,2012-09-23 15:46:00,
2012-09-23 08:51:00,46.8,44.6,30.11,North,0,0.0,0.0,92,0.00,,,0.00,WUHU21623XXSP,2012-09-23 15:51:00,
2012-09-23 08:56:00,46.9,44.8,30.11,North,0,0.0,0.0,92,0.00,,,0.00,WUHU21623XXSP,2012-09-23 15:56:00,
2012-09-23 09:01:00,47.5,45.3,30.12,North,0,0.0,0.0,92,0.00,,,0.00,WUHU21623XXSP,2012-09-23 16:01:00,
2012-09-23 09:06:00,47.8,46.0,30.12,North,0,0.0,0.0,93,0.00,,,0.00,WUHU21623XXSP,2012-09-23 16:06:00,
2012-09-23 09:11:00,48.0,46.0,30.12,North,0,0.0,0.0,93,0.00,,,0.00,WUHU21623XXSP,2012-09-23 16:11:00,
2012-09-23 09:16:00,48.6,46.6,30.12,North,0,0.0,0.0,93,0.00,,,0.00,WUHU21623XXSP,2012-09-23 16:16:00,
2012-09-23 09:21:00,48.7,46.8,30.11,North,0,0.0,0.0,93,0.00,,,0.00,WUHU21623XXSP,2012-09-23 16:21:00,
2012-09-23 09:26:00,48.9,47.0,30.11,North,0,0.0,0.0,93,0.00,,,0.00,WUHU21623XXSP,2012-09-23 16:26:00,
2012-09-23 09:31:00,49.1,47.1,30.12,North,0,0.0,0.0,93,0.00,,,0.00,WUHU21623XXSP,2012-09-23 16:31:00,
2012-09-23 09:36:00,49.6,47.6,30.11,North,0,0.0,0.0,92,0.00,,,0.00,WUHU21623XXSP,2012-09-23 16:36:00,
2012-09-23 09:41:00,49.8,47.8,30.12,North,0,0.0,0.0,93,0.00,,,0.00,WUHU21623XXSP,2012-09-23 16:41:00,
2012-09-23 09:46:00,50.2,48.2,30.11,North,0,0.0,0.0,93,0.00,,,0.00,WUHU21623XXSP,2012-09-23 16:46:00,
2012-09-23 09:51:00,50.4,48.3,30.12,North,0,0.0,0.0,93,0.00,,,0.00,WUHU21623XXSP,2012-09-23 16:51:00,
2012-09-23 09:56:00,50.7,48.7,30.12,North,0,0.0,0.0,93,0.00,,,0.00,WUHU21623XXSP,2012-09-23 16:56:00,
2012-09-23 10:01:00,51.1,49.1,30.12,North,0,0.0,0.0,93,0.00,,,0.00,WUHU21623XXSP,2012-09-23 17:01:00,
2012-09-23 10:06:00,51.4,49.0,30.12,North,0,0.0,0.0,92,0.00,,,0.00,WUHU21623XXSP,2012-09-23 17:06:00,
2012-09-23 10:11:00,51.6,49.3,30.11,North,0,0.0,0.0,92,0.00,,,0.00,WUHU21623XXSP,2012-09-23 17:11:00,
2012-09-23 10:16:00,52.0,49.7,30.12,North,0,0.0,0.0,92,0.00,,,0.00,WUHU21623XXSP,2012-09-23 17:16:00,
2012-09-23 10:21:00,52.5,50.2,30.11,North,0,0.0,0.0,92,0.00,,,0.00,WUHU21623XXSP,2012-09-23 17:21:00,
2012-09-23 10:26:00,52.9,50.1,30.12,North,0,0.0,0.0,92,0.00,,,0.00,WUHU21623XXSP,2012-09-23 17:26:00,
2012-09-23 10:31:00,53.2,50.6,30.12,WSW,247,0.0,0.0,91,0.00,,,0.00,WUHU21623XXSP,2012-09-23 17:31:00,
2012-09-23 10:36:00,54.0,51.4,30.12,WSW,247,0.0,0.0,91,0.00,,,0.00,WUHU21623XXSP,2012-09-23 17:36:00,
2012-09-23 10:41:00,54.3,51.1,30.12,NNE,22,0.0,0.0,89,0.00,,,0.00,WUHU21623XXSP,2012-09-23 17:41:00,
2012-09-23 10:46:00,55.0,51.5,30.11,NNE,22,0.0,0.0,88,0.00,,,0.00,WUHU21623XXSP,2012-09-23 17:46:00,
2012-09-23 10:51:00,55.4,51.9,30.12,SW,225,0.0,0.0,88,0.00,,,0.00,WUHU21623XXSP,2012-09-23 17:51:00,
2012-09-23 10:56:00,55.8,52.2,30.12,NNE,22,0.0,0.0,88,0.00,,,0.00,WUHU21623XXSP,2012-09-23 17:56:00,
2012-09-23 11:01:00,56.1,52.4,30.12,NNE,22,0.0,0.0,87,0.00,,,0.00,WUHU21623XXSP,2012-09-23 18:01:00,
2012-09-23 11:06:00,56.3,52.4,30.12,West,270,0.0,0.0,87,0.00,,,0.00,WUHU21623XXSP,2012-09-23 18:06:00,
2012-09-23 11:11:00,56.7,52.5,30.12,WSW,247,0.0,0.0,86,0.00,,,0.00,WUHU21623XXSP,2012-09-23 18:11:00,
2012-09-23 11:16:00,57.0,52.8,30.12,NE,45,0.0,0.0,86,0.00,,,0.00,WUHU21623XXSP,2012-09-23 18:16:00,
2012-09-23 11:21:00,57.2,52.7,30.12,SE,135,0.0,0.0,85,0.00,,,0.00,WUHU21623XXSP,2012-09-23 18:21:00,
2012-09-23 11:26:00,57.6,53.1,30.12,NE,45,0.0,0.0,85,0.00,,,0.00,WUHU21623XXSP,2012-09-23 18:26:00,
2012-09-23 11:31:00,57.9,53.4,30.12,WSW,247,0.0,0.0,85,0.00,,,0.00,WUHU21623XXSP,2012-09-23 18:31:00,
2012-09-23 11:36:00,58.3,53.5,30.12,WSW,247,0.0,0.0,84,0.00,,,0.00,WUHU21623XXSP,2012-09-23 18:36:00,
2012-09-23 11:41:00,58.8,53.7,30.12,NNW,337,0.0,0.0,83,0.00,,,0.00,WUHU21623XXSP,2012-09-23 18:41:00,
2012-09-23 11:46:00,59.2,54.0,30.12,ESE,112,0.0,0.0,83,0.00,,,0.00,WUHU21623XXSP,2012-09-23 18:46:00,
2012-09-23 11:51:00,59.5,54.1,30.12,SSW,202,0.0,0.0,82,0.00,,,0.00,WUHU21623XXSP,2012-09-23 18:51:00,
2012-09-23 11:56:00,59.5,54.1,30.12,WSW,247,0.0,0.0,82,0.00,,,0.00,WUHU21623XXSP,2012-09-23 18:56:00,
2012-09-23 12:01:00,59.7,53.9,30.12,SW,225,0.0,0.0,81,0.00,,,0.00,WUHU21623XXSP,2012-09-23 19:01:00,
2012-09-23 12:06:00,60.1,54.3,30.12,SSW,202,0.0,0.0,81,0.00,,,0.00,WUHU21623XXSP,2012-09-23 19:06:00,
2012-09-23 12:11:00,60.4,54.3,30.12,WSW,247,0.0,0.0,80,0.00,,,0.00,WUHU21623XXSP,2012-09-23 19:11:00,
2012-09-23 12:16:00,60.6,54.5,30.12,South,180,0.0,0.0,80,0.00,,,0.00,WUHU21623XXSP,2012-09-23 19:16:00,
2012-09-23 12:21:00,61.0,54.1,30.12,SE,135,0.0,0.0,78,0.00,,,0.00,WUHU21623XXSP,2012-09-23 19:21:00,
2012-09-23 12:26:00,61.2,54.3,30.12,SSW,202,0.0,0.0,78,0.00,,,0.00,WUHU21623XXSP,2012-09-23 19:26:00,
2012-09-23 12:31:00,61.3,54.4,30.12,WSW,247,0.0,0.0,78,0.00,,,0.00,WUHU21623XXSP,2012-09-23 19:31:00,
2012-09-23 12:36:00,61.7,54.4,30.12,WNW,292,0.0,0.0,77,0.00,,,0.00,WUHU21623XXSP,2012-09-23 19:36:00,
2012-09-23 12:41:00,61.9,54.2,30.12,SW,225,0.0,0.0,76,0.00,,,0.00,WUHU21623XXSP,2012-09-23 19:41:00,
2012-09-23 12:46:00,62.2,54.5,30.12,SSW,202,0.0,0.0,76,0.00,,,0.00,WUHU21623XXSP,2012-09-23 19:46:00,
2012-09-23 12:51:00,62.4,54.3,30.12,SW,225,0.0,0.0,75,0.00,,,0.00,WUHU21623XXSP,2012-09-23 19:51:00,
2012-09-23 12:56:00,62.4,54.0,30.11,WSW,247,0.0,0.0,74,0.00,,,0.00,WUHU21623XXSP,2012-09-23 19:56:00,
2012-09-23 13:01:00,62.8,54.3,30.11,South,180,0.0,0.0,74,0.00,,,0.00,WUHU21623XXSP,2012-09-23 20:01:00,
2012-09-23 13:06:00,62.8,54.0,30.11,WSW,247,0.0,0.0,73,0.00,,,0.00,WUHU21623XXSP,2012-09-23 20:06:00,
2012-09-23 13:11:00,62.8,54.0,30.11,NE,45,0.0,0.0,73,0.00,,,0.00,WUHU21623XXSP,2012-09-23 20:11:00,
2012-09-23 13:16:00,63.3,54.5,30.10,SW,225,0.0,0.0,73,0.00,,,0.00,WUHU21623XXSP,2012-09-23 20:16:00,
2012-09-23 13:21:00,63.5,54.7,30.10,WSW,247,0.0,0.0,73,0.00,,,0.00,WUHU21623XXSP,2012-09-23 20:21:00,
2012-09-23 13:26:00,63.7,54.5,30.10,SSW,202,0.0,0.0,72,0.00,,,0.00,WUHU21623XXSP,2012-09-23 20:26:00,
2012-09-23 13:31:00,63.9,54.3,30.09,SW,225,0.0,0.0,71,0.00,,,0.00,WUHU21623XXSP,2012-09-23 20:31:00,
2012-09-23 13:36:00,64.0,54.9,30.10,SW,225,0.0,0.0,72,0.00,,,0.00,WUHU21623XXSP,2012-09-23 20:36:00,
2012-09-23 13:41:00,64.2,55.0,30.09,NNE,22,0.0,0.0,72,0.00,,,0.00,WUHU21623XXSP,2012-09-23 20:41:00,
2012-09-23 13:46:00,64.6,55.0,30.09,SSW,202,0.0,0.0,71,0.00,,,0.00,WUHU21623XXSP,2012-09-23 20:46:00,
2012-09-23 13:51:00,64.9,55.3,30.09,WSW,247,0.0,0.0,71,0.00,,,0.00,WUHU21623XXSP,2012-09-23 20:51:00,
2012-09-23 13:56:00,64.9,55.0,30.08,South,180,0.0,0.0,70,0.00,,,0.00,WUHU21623XXSP,2012-09-23 20:56:00,
2012-09-23 14:01:00,65.3,55.3,30.08,North,0,0.0,0.0,70,0.00,,,0.00,WUHU21623XXSP,2012-09-23 21:01:00,
2012-09-23 14:06:00,65.3,54.5,30.08,North,0,0.0,0.0,68,0.00,,,0.00,WUHU21623XXSP,2012-09-23 21:06:00,
2012-09-23 14:11:00,65.3,54.9,30.08,North,0,0.0,0.0,69,0.00,,,0.00,WUHU21623XXSP,2012-09-23 21:11:00,
2012-09-23 14:16:00,65.3,54.9,30.08,North,0,0.0,0.0,69,0.00,,,0.00,WUHU21623XXSP,2012-09-23 21:16:00,
2012-09-23 14:21:00,65.5,54.6,30.07,NE,45,0.0,0.0,68,0.00,,,0.00,WUHU21623XXSP,2012-09-23 21:21:00,
2012-09-23 14:26:00,65.5,55.0,30.07,NNE,22,0.0,0.0,68,0.00,,,0.00,WUHU21623XXSP,2012-09-23 21:26:00,
2012-09-23 14:31:00,65.5,54.6,30.07,SSE,157,0.0,0.0,68,0.00,,,0.00,WUHU21623XXSP,2012-09-23 21:31:00,
2012-09-23 14:36:00,65.7,54.8,30.07,SSE,157,0.0,0.0,68,0.00,,,0.00,WUHU21623XXSP,2012-09-23 21:36:00,
2012-09-23 14:41:00,65.7,54.8,30.07,NNE,22,0.0,0.0,69,0.00,,,0.00,WUHU21623XXSP,2012-09-23 21:41:00,
2012-09-23 14:46:00,65.8,55.4,30.07,NE,45,0.0,0.0,69,0.00,,,0.00,WUHU21623XXSP,2012-09-23 21:46:00,
2012-09-23 14:51:00,66.0,55.1,30.07,NE,45,0.0,0.0,68,0.00,,,0.00,WUHU21623XXSP,2012-09-23 21:51:00,
2012-09-23 14:56:00,66.0,55.1,30.07,North,0,0.0,0.0,68,0.00,,,0.00,WUHU21623XXSP,2012-09-23 21:56:00,
2012-09-23 15:01:00,65.8,55.0,30.07,SSE,157,0.0,0.0,68,0.00,,,0.00,WUHU21623XXSP,2012-09-23 22:01:00,
2012-09-23 15:06:00,65.8,54.5,30.07,NNE,22,0.0,0.0,67,0.00,,,0.00,WUHU21623XXSP,2012-09-23 22:06:00,
2012-09-23 15:11:00,65.8,54.5,30.06,NNE,22,0.0,0.0,67,0.00,,,0.00,WUHU21623XXSP,2012-09-23 22:11:00,
2012-09-23 15:16:00,66.0,54.7,30.06,West,270,0.0,0.0,67,0.00,,,0.00,WUHU21623XXSP,2012-09-23 22:16:00,
2012-09-23 15:21:00,66.2,54.9,30.06,WNW,292,0.0,0.0,67,0.00,,,0.00,WUHU21623XXSP,2012-09-23 22:21:00,
2012-09-23 15:26:00,66.0,54.7,30.07,SW,225,0.0,0.0,67,0.00,,,0.00,WUHU21623XXSP,2012-09-23 22:26:00,
2012-09-23 15:31:00,66.2,54.9,30.07,WSW,247,0.0,0.0,67,0.00,,,0.00,WUHU21623XXSP,2012-09-23 22:31:00,
2012-09-23 15:36:00,66.0,54.7,30.06,East,90,0.0,0.0,67,0.00,,,0.00,WUHU21623XXSP,2012-09-23 22:36:00,
2012-09-23 15:41:00,66.0,54.7,30.06,South,180,0.0,0.0,67,0.00,,,0.00,WUHU21623XXSP,2012-09-23 22:41:00,
2012-09-23 15:46:00,66.4,54.9,30.07,South,180,0.0,0.0,67,0.00,,,0.00,WUHU21623XXSP,2012-09-23 22:46:00,
2012-09-23 15:51:00,66.4,55.0,30.07,NE,45,0.0,0.0,67,0.00,,,0.00,WUHU21623XXSP,2012-09-23 22:51:00,
2012-09-23 15:56:00,66.4,55.0,30.07,NE,45,0.0,0.0,67,0.00,,,0.00,WUHU21623XXSP,2012-09-23 22:56:00,
2012-09-23 16:01:00,66.4,55.0,30.07,NE,45,0.0,0.0,67,0.00,,,0.00,WUHU21623XXSP,2012-09-23 23:01:00,
2012-09-23 16:06:00,66.2,54.9,30.06,NE,45,0.0,0.0,67,0.00,,,0.00,WUHU21623XXSP,2012-09-23 23:06:00,
2012-09-23 16:11:00,66.2,54.9,30.07,SSW,202,0.0,0.0,67,0.00,,,0.00,WUHU21623XXSP,2012-09-23 23:11:00,
2012-09-23 16:16:00,66.0,54.7,30.06,West,270,0.0,0.0,67,0.00,,,0.00,WUHU21623XXSP,2012-09-23 23:16:00,
2012-09-23 16:21:00,66.0,54.7,30.06,West,270,0.0,0.0,67,0.00,,,0.00,WUHU21623XXSP,2012-09-23 23:21:00,
2012-09-23 16:26:00,66.0,54.7,30.07,WNW,292,0.0,0.0,67,0.00,,,0.00,WUHU21623XXSP,2012-09-23 23:26:00,
2012-09-23 16:31:00,66.0,54.7,30.07,WSW,247,0.0,0.0,67,0.00,,,0.00,WUHU21623XXSP,2012-09-23 23:31:00,
2012-09-23 16:36:00,65.8,55.0,30.06,North,0,0.0,0.0,68,0.00,,,0.00,WUHU21623XXSP,2012-09-23 23:36:00,
2012-09-23 16:41:00,65.8,55.0,30.07,SW,225,0.0,0.0,68,0.00,,,0.00,WUHU21623XXSP,2012-09-23 23:41:00,
2012-09-23 16:46:00,65.7,55.2,30.07,SSW,202,0.0,0.0,69,0.00,,,0.00,WUHU21623XXSP,2012-09-23 23:46:00,
2012-09-23 16:51:00,65.5,55.0,30.07,WSW,247,0.0,0.0,69,0.00,,,0.00,WUHU21623XXSP,2012-09-23 23:51:00,
2012-09-23 16:56:00,65.3,55.3,30.07,SSW,202,0.0,0.0,70,0.00,,,0.00,WUHU21623XXSP,2012-09-23 23:56:00,
2012-09-23 17:01:00,65.1,55.1,30.07,SW,225,0.0,0.0,70,0.00,,,0.00,WUHU21623XXSP,2012-09-24 00:01:00,
2012-09-23 17:06:00,64.9,55.1,30.07,SE,135,0.0,0.0,70,0.00,,,0.00,WUHU21623XXSP,2012-09-24 00:06:00,
2012-09-23 17:11:00,64.9,55.0,30.07,SSW,202,0.0,0.0,70,0.00,,,0.00,WUHU21623XXSP,2012-09-24 00:11:00,
2012-09-23 17:16:00,64.8,54.8,30.07,WSW,247,0.0,0.0,70,0.00,,,0.00,WUHU21623XXSP,2012-09-24 00:16:00,
2012-09-23 17:21:00,64.8,55.2,30.07,WSW,247,0.0,0.0,71,0.00,,,0.00,WUHU21623XXSP,2012-09-24 00:21:00,
2012-09-23 17:26:00,64.6,55.0,30.07,SW,225,0.0,0.0,71,0.00,,,0.00,WUHU21623XXSP,2012-09-24 00:26:00,
2012-09-23 17:31:00,64.2,54.7,30.08,WSW,247,0.0,0.0,71,0.00,,,0.00,WUHU21623XXSP,2012-09-24 00:31:00,
2012-09-23 17:36:00,64.0,54.5,30.07,SW,225,0.0,0.0,71,0.00,,,0.00,WUHU21623XXSP,2012-09-24 00:36:00,
2012-09-23 17:41:00,63.9,54.7,30.08,WSW,247,0.0,0.0,72,0.00,,,0.00,WUHU21623XXSP,2012-09-24 00:41:00,
2012-09-23 17:46:00,63.5,54.3,30.08,SSE,157,0.0,0.0,72,0.00,,,0.00,WUHU21623XXSP,2012-09-24 00:46:00,
2012-09-23 17:51:00,63.1,54.0,30.08,SSE,157,0.0,0.0,72,0.00,,,0.00,WUHU21623XXSP,2012-09-24 00:51:00,
2012-09-23 17:56:00,63.0,54.0,30.08,SSE,157,0.0,0.0,72,0.00,,,0.00,WUHU21623XXSP,2012-09-24 00:56:00,
2012-09-23 18:01:00,62.4,53.6,30.08,South,180,0.0,0.0,73,0.00,,,0.00,WUHU21623XXSP,2012-09-24 01:01:00,
2012-09-23 18:06:00,62.4,53.6,30.08,South,180,0.0,0.0,73,0.00,,,0.00,WUHU21623XXSP,2012-09-24 01:06:00,
2012-09-23 18:11:00,62.2,53.8,30.08,South,180,0.0,0.0,74,0.00,,,0.00,WUHU21623XXSP,2012-09-24 01:11:00,
2012-09-23 18:16:00,61.9,53.5,30.08,South,180,0.0,0.0,74,0.00,,,0.00,WUHU21623XXSP,2012-09-24 01:16:00,
2012-09-23 18:21:00,61.5,53.2,30.08,South,180,0.0,0.0,74,0.00,,,0.00,WUHU21623XXSP,2012-09-24 01:21:00,
2012-09-23 18:26:00,61.5,53.2,30.08,South,180,0.0,0.0,74,0.00,,,0.00,WUHU21623XXSP,2012-09-24 01:26:00,
2012-09-23 18:31:00,61.2,53.2,30.09,South,180,0.0,0.0,75,0.00,,,0.00,WUHU21623XXSP,2012-09-24 01:31:00,
2012-09-23 18:36:00,61.0,53.0,30.08,South,180,0.0,0.0,75,0.00,,,0.00,WUHU21623XXSP,2012-09-24 01:36:00,
2012-09-23 18:41:00,60.6,53.1,30.08,South,180,0.0,0.0,76,0.00,,,0.00,WUHU21623XXSP,2012-09-24 01:41:00,
2012-09-23 18:46:00,60.4,52.9,30.08,South,180,0.0,0.0,76,0.00,,,0.00,WUHU21623XXSP,2012-09-24 01:46:00,
2012-09-23 18:51:00,60.1,52.9,30.09,South,180,0.0,0.0,77,0.00,,,0.00,WUHU21623XXSP,2012-09-24 01:51:00,
2012-09-23 18:56:00,59.7,52.5,30.09,South,180,0.0,0.0,77,0.00,,,0.00,WUHU21623XXSP,2012-09-24 01:56:00,
2012-09-23 19:01:00,59.5,52.7,30.09,South,180,0.0,0.0,78,0.00,,,0.00,WUHU21623XXSP,2012-09-24 02:01:00,
2012-09-23 19:06:00,59.2,52.3,30.09,South,180,0.0,0.0,78,0.00,,,0.00,WUHU21623XXSP,2012-09-24 02:06:00,
2012-09-23 19:11:00,58.8,52.0,30.09,South,180,0.0,0.0,78,0.00,,,0.00,WUHU21623XXSP,2012-09-24 02:11:00,
2012-09-23 19:16:00,58.3,51.8,30.09,South,180,0.0,0.0,79,0.00,,,0.00,WUHU21623XXSP,2012-09-24 02:16:00,
2012-09-23 19:21:00,58.1,51.6,30.09,South,180,0.0,0.0,79,0.00,,,0.00,WUHU21623XXSP,2012-09-24 02:21:00,
2012-09-23 19:26:00,57.9,51.4,30.09,South,180,0.0,0.0,79,0.00,,,0.00,WUHU21623XXSP,2012-09-24 02:26:00,
2012-09-23 19:31:00,57.6,51.4,30.09,South,180,0.0,0.0,80,0.00,,,0.00,WUHU21623XXSP,2012-09-24 02:31:00,
2012-09-23 19:36:00,57.4,51.3,30.09,South,180,0.0,0.0,80,0.00,,,0.00,WUHU21623XXSP,2012-09-24 02:36:00,
2012-09-23 19:41:00,57.0,50.9,30.08,South,180,0.0,0.0,80,0.00,,,0.00,WUHU21623XXSP,2012-09-24 02:41:00,
2012-09-23 19:46:00,56.8,51.0,30.09,South,180,0.0,0.0,81,0.00,,,0.00,WUHU21623XXSP,2012-09-24 02:46:00,
2012-09-23 19:51:00,56.5,51.0,30.09,South,180,0.0,0.0,82,0.00,,,0.00,WUHU21623XXSP,2012-09-24 02:51:00,
2012-09-23 19:56:00,56.3,50.8,30.09,South,180,0.0,0.0,82,0.00,,,0.00,WUHU21623XXSP,2012-09-24 02:56:00,
2012-09-23 20:01:00,56.1,50.6,30.09,South,180,0.0,0.0,82,0.00,,,0.00,WUHU21623XXSP,2012-09-24 03:01:00,
2012-09-23 20:06:00,55.9,50.5,30.09,South,180,0.0,0.0,82,0.00,,,0.00,WUHU21623XXSP,2012-09-24 03:06:00,
2012-09-23 20:11:00,55.8,50.6,30.09,South,180,0.0,0.0,83,0.00,,,0.00,WUHU21623XXSP,2012-09-24 03:11:00,
2012-09-23 20:16:00,55.4,50.3,30.09,South,180,0.0,0.0,83,0.00,,,0.00,WUHU21623XXSP,2012-09-24 03:16:00,
2012-09-23 20:21:00,55.2,50.1,30.09,South,180,0.0,0.0,83,0.00,,,0.00,WUHU21623XXSP,2012-09-24 03:21:00,
2012-09-23 20:26:00,55.2,50.4,30.09,South,180,0.0,0.0,84,0.00,,,0.00,WUHU21623XXSP,2012-09-24 03:26:00,
2012-09-23 20:31:00,55.0,50.2,30.09,South,180,0.0,0.0,84,0.00,,,0.00,WUHU21623XXSP,2012-09-24 03:31:00,
2012-09-23 20:36:00,54.9,50.1,30.09,South,180,0.0,0.0,84,0.00,,,0.00,WUHU21623XXSP,2012-09-24 03:36:00,
2012-09-23 20:41:00,54.7,49.9,30.09,South,180,0.0,0.0,84,0.00,,,0.00,WUHU21623XXSP,2012-09-24 03:41:00,
2012-09-23 20:46:00,54.5,49.7,30.09,South,180,0.0,0.0,84,0.00,,,0.00,WUHU21623XXSP,2012-09-24 03:46:00,
2012-09-23 20:51:00,54.3,49.5,30.09,South,180,0.0,0.0,84,0.00,,,0.00,WUHU21623XXSP,2012-09-24 03:51:00,
2012-09-23 20:56:00,54.3,49.5,30.09,South,180,0.0,0.0,84,0.00,,,0.00,WUHU21623XXSP,2012-09-24 03:56:00,
2012-09-23 21:00:00,54.1,49.4,30.09,South,180,0.0,0.0,84,0.00,,,0.00,WUHU21623XXSP,2012-09-24 04:00:00,
2012-09-23 21:01:00,54.1,49.4,30.09,South,180,0.0,0.0,84,0.00,,,0.00,WUHU21623XXSP,2012-09-24 04:01:00,
2012-09-23 21:06:00,54.0,49.2,30.10,South,180,0.0,0.0,84,0.00,,,0.00,WUHU21623XXSP,2012-09-24 04:06:00,
2012-09-23 21:11:00,53.8,49.0,30.10,South,180,0.0,0.0,84,0.00,,,0.00,WUHU21623XXSP,2012-09-24 04:11:00,
2012-09-23 21:16:00,53.4,49.0,30.10,South,180,0.0,0.0,85,0.00,,,0.00,WUHU21623XXSP,2012-09-24 04:16:00,
2012-09-23 21:21:00,53.2,48.8,30.10,South,180,0.0,0.0,85,0.00,,,0.00,WUHU21623XXSP,2012-09-24 04:21:00,
2012-09-23 21:26:00,53.2,49.1,30.10,South,180,0.0,0.0,86,0.00,,,0.00,WUHU21623XXSP,2012-09-24 04:26:00,
2012-09-23 21:31:00,52.9,49.0,30.10,South,180,0.0,0.0,86,0.00,,,0.00,WUHU21623XXSP,2012-09-24 04:31:00,
2012-09-23 21:36:00,52.9,48.8,30.10,South,180,0.0,0.0,86,0.00,,,0.00,WUHU21623XXSP,2012-09-24 04:36:00,
2012-09-23 21:41:00,52.9,48.8,30.10,South,180,0.0,0.0,86,0.00,,,0.00,WUHU21623XXSP,2012-09-24 04:41:00,
2012-09-23 21:46:00,52.7,48.6,30.10,South,180,0.0,0.0,86,0.00,,,0.00,WUHU21623XXSP,2012-09-24 04:46:00,
2012-09-23 21:51:00,52.7,48.6,30.10,South,180,0.0,0.0,86,0.00,,,0.00,WUHU21623XXSP,2012-09-24 04:51:00,
2012-09-23 21:56:00,52.7,48.6,30.10,South,180,0.0,0.0,86,0.00,,,0.00,WUHU21623XXSP,2012-09-24 04:56:00,
2012-09-23 22:01:00,52.5,48.4,30.09,South,180,0.0,0.0,86,0.00,,,0.00,WUHU21623XXSP,2012-09-24 05:01:00,
2012-09-23 22:06:00,52.5,48.4,30.10,South,180,0.0,0.0,86,0.00,,,0.00,WUHU21623XXSP,2012-09-24 05:06:00,
2012-09-23 22:11:00,52.5,48.7,30.09,South,180,0.0,0.0,87,0.00,,,0.00,WUHU21623XXSP,2012-09-24 05:11:00,
2012-09-23 22:16:00,52.5,48.7,30.09,South,180,0.0,0.0,87,0.00,,,0.00,WUHU21623XXSP,2012-09-24 05:16:00,
2012-09-23 22:21:00,52.3,48.5,30.10,South,180,0.0,0.0,87,0.00,,,0.00,WUHU21623XXSP,2012-09-24 05:21:00,
2012-09-23 22:26:00,52.3,48.5,30.10,South,180,0.0,0.0,87,0.00,,,0.00,WUHU21623XXSP,2012-09-24 05:26:00,
2012-09-23 22:31:00,52.3,48.5,30.10,South,180,0.0,0.0,87,0.00,,,0.00,WUHU21623XXSP,2012-09-24 05:31:00,
2012-09-23 22:36:00,52.2,48.4,30.10,South,180,0.0,0.0,87,0.00,,,0.00,WUHU21623XXSP,2012-09-24 05:36:00,
2012-09-23 22:41:00,52.0,48.2,30.10,South,180,0.0,0.0,87,0.00,,,0.00,WUHU21623XXSP,2012-09-24 05:41:00,
2012-09-23 22:46:00,52.0,48.2,30.09,South,180,0.0,0.0,87,0.00,,,0.00,WUHU21623XXSP,2012-09-24 05:46:00,
2012-09-23 22:51:00,51.8,48.0,30.09,South,180,0.0,0.0,87,0.00,,,0.00,WUHU21623XXSP,2012-09-24 05:51:00,
2012-09-23 22:56:00,51.6,47.8,30.09,South,180,0.0,0.0,87,0.00,,,0.00,WUHU21623XXSP,2012-09-24 05:56:00,
2012-09-23 23:01:00,51.6,47.8,30.09,South,180,0.0,0.0,87,0.00,,,0.00,WUHU21623XXSP,2012-09-24 06:01:00,
2012-09-23 23:06:00,51.6,48.1,30.09,South,180,0.0,0.0,88,0.00,,,0.00,WUHU21623XXSP,2012-09-24 06:06:00,
2012-09-23 23:11:00,51.4,47.9,30.09,South,180,0.0,0.0,88,0.00,,,0.00,WUHU21623XXSP,2012-09-24 06:11:00,
2012-09-23 23:16:00,51.3,47.8,30.09,South,180,0.0,0.0,88,0.00,,,0.00,WUHU21623XXSP,2012-09-24 06:16:00,
2012-09-23 23:21:00,51.1,47.3,30.09,South,180,0.0,0.0,87,0.00,,,0.00,WUHU21623XXSP,2012-09-24 06:21:00,
2012-09-23 23:26:00,51.1,47.3,30.09,South,180,0.0,0.0,87,0.00,,,0.00,WUHU21623XXSP,2012-09-24 06:26:00,
2012-09-23 23:31:00,50.9,47.1,30.09,South,180,0.0,0.0,87,0.00,,,0.00,WUHU21623XXSP,2012-09-24 06:31:00,
2012-09-23 23:36:00,50.9,47.4,30.09,South,180,0.0,0.0,88,0.00,,,0.00,WUHU21623XXSP,2012-09-24 06:36:00,
2012-09-23 23:41:00,50.7,47.2,30.09,South,180,0.0,0.0,88,0.00,,,0.00,WUHU21623XXSP,2012-09-24 06:41:00,
2012-09-23 23:46:00,50.7,47.2,30.09,South,180,0.0,0.0,88,0.00,,,0.00,WUHU21623XXSP,2012-09-24 06:46:00,
2012-09-23 23:51:00,50.7,47.2,30.09,South,180,0.0,0.0,88,0.00,,,0.00,WUHU21623XXSP,2012-09-24 06:51:00,
2012-09-23 23:56:00,50.5,47.0,30.09,South,180,0.0,0.0,88,0.00,,,0.00,WUHU21623XXSP,2012-09-24 06:56:00,